sensor_id;sensor_type;location;lat;lon;timestamp;temperature;humidity
23499;DHT22;11926;48.120;11.562;2023-03-01T00:01:09;2.50;87.60
23499;DHT22;11926;48.120;11.562;2023-03-01T00:03:58;2.50;87.60
23499;DHT22;11926;48.120;11.562;2023-03-01T00:06:46;2.50;87.80
23499;DHT22;11926;48.120;11.562;2023-03-01T00:09:33;2.50;87.70
23499;DHT22;11926;48.120;11.562;2023-03-01T00:12:20;2.40;87.80
23499;DHT22;11926;48.120;11.562;2023-03-01T00:15:08;2.40;87.70
23499;DHT22;11926;48.120;11.562;2023-03-01T00:17:55;2.40;87.70
23499;DHT22;11926;48.120;11.562;2023-03-01T00:20:49;2.40;87.90
23499;DHT22;11926;48.120;11.562;2023-03-01T00:23:37;2.40;88.00
23499;DHT22;11926;48.120;11.562;2023-03-01T00:26:25;2.40;88.00
23499;DHT22;11926;48.120;11.562;2023-03-01T00:29:13;2.30;88.00
23499;DHT22;11926;48.120;11.562;2023-03-01T00:32:01;2.40;88.10
23499;DHT22;11926;48.120;11.562;2023-03-01T00:34:48;2.40;88.20
23499;DHT22;11926;48.120;11.562;2023-03-01T00:37:43;2.40;88.10
23499;DHT22;11926;48.120;11.562;2023-03-01T00:40:32;2.30;88.20
23499;DHT22;11926;48.120;11.562;2023-03-01T00:43:19;2.40;88.20
23499;DHT22;11926;48.120;11.562;2023-03-01T00:46:09;2.40;88.20
23499;DHT22;11926;48.120;11.562;2023-03-01T00:48:56;2.30;88.20
23499;DHT22;11926;48.120;11.562;2023-03-01T00:51:44;2.30;88.30
23499;DHT22;11926;48.120;11.562;2023-03-01T00:54:32;2.40;88.20
23499;DHT22;11926;48.120;11.562;2023-03-01T00:57:19;2.30;88.20
23499;DHT22;11926;48.120;11.562;2023-03-01T01:00:08;2.30;88.30
23499;DHT22;11926;48.120;11.562;2023-03-01T01:02:57;2.30;88.30
23499;DHT22;11926;48.120;11.562;2023-03-01T01:05:45;2.30;88.20
23499;DHT22;11926;48.120;11.562;2023-03-01T01:08:32;2.30;88.30
23499;DHT22;11926;48.120;11.562;2023-03-01T01:11:21;2.20;88.30
23499;DHT22;11926;48.120;11.562;2023-03-01T01:14:08;2.20;88.50
23499;DHT22;11926;48.120;11.562;2023-03-01T01:16:56;2.20;88.40
23499;DHT22;11926;48.120;11.562;2023-03-01T01:19:43;2.30;88.40
23499;DHT22;11926;48.120;11.562;2023-03-01T01:22:30;2.20;88.40
23499;DHT22;11926;48.120;11.562;2023-03-01T01:25:18;2.20;88.60
23499;DHT22;11926;48.120;11.562;2023-03-01T01:28:06;2.20;88.50
23499;DHT22;11926;48.120;11.562;2023-03-01T01:30:53;2.20;88.50
23499;DHT22;11926;48.120;11.562;2023-03-01T01:33:41;2.20;88.50
23499;DHT22;11926;48.120;11.562;2023-03-01T01:36:29;2.10;88.50
23499;DHT22;11926;48.120;11.562;2023-03-01T01:39:16;2.10;88.50
23499;DHT22;11926;48.120;11.562;2023-03-01T01:42:04;2.10;88.50
23499;DHT22;11926;48.120;11.562;2023-03-01T01:50:59;2.10;88.70
23499;DHT22;11926;48.120;11.562;2023-03-01T01:53:50;2.10;88.80
23499;DHT22;11926;48.120;11.562;2023-03-01T01:56:43;2.10;88.70
23499;DHT22;11926;48.120;11.562;2023-03-01T01:59:32;2.10;88.70
23499;DHT22;11926;48.120;11.562;2023-03-01T02:02:21;2.10;88.70
23499;DHT22;11926;48.120;11.562;2023-03-01T02:05:12;2.10;88.80
23499;DHT22;11926;48.120;11.562;2023-03-01T02:08:03;2.10;88.90
23499;DHT22;11926;48.120;11.562;2023-03-01T02:10:51;2.10;88.70
23499;DHT22;11926;48.120;11.562;2023-03-01T02:13:39;2.10;88.70
23499;DHT22;11926;48.120;11.562;2023-03-01T02:16:27;2.00;88.70
23499;DHT22;11926;48.120;11.562;2023-03-01T02:19:26;2.00;88.80
23499;DHT22;11926;48.120;11.562;2023-03-01T02:22:22;2.10;89.00
23499;DHT22;11926;48.120;11.562;2023-03-01T02:25:23;2.10;88.90
23499;DHT22;11926;48.120;11.562;2023-03-01T02:28:20;2.10;88.90
23499;DHT22;11926;48.120;11.562;2023-03-01T02:31:09;2.10;88.90
23499;DHT22;11926;48.120;11.562;2023-03-01T02:34:13;2.00;88.80
23499;DHT22;11926;48.120;11.562;2023-03-01T02:37:02;2.10;89.00
23499;DHT22;11926;48.120;11.562;2023-03-01T02:39:53;2.10;88.90
23499;DHT22;11926;48.120;11.562;2023-03-01T02:42:46;2.10;89.00
23499;DHT22;11926;48.120;11.562;2023-03-01T02:45:35;2.10;88.90
23499;DHT22;11926;48.120;11.562;2023-03-01T02:48:23;2.00;88.90
23499;DHT22;11926;48.120;11.562;2023-03-01T02:54:21;2.00;88.90
23499;DHT22;11926;48.120;11.562;2023-03-01T02:57:12;1.90;88.80
23499;DHT22;11926;48.120;11.562;2023-03-01T03:00:03;1.90;89.10
23499;DHT22;11926;48.120;11.562;2023-03-01T03:02:55;1.90;89.10
23499;DHT22;11926;48.120;11.562;2023-03-01T03:05:44;2.00;89.10
23499;DHT22;11926;48.120;11.562;2023-03-01T03:08:31;1.90;89.00
23499;DHT22;11926;48.120;11.562;2023-03-01T03:11:18;1.90;89.00
23499;DHT22;11926;48.120;11.562;2023-03-01T03:14:07;1.90;88.90
23499;DHT22;11926;48.120;11.562;2023-03-01T03:17:00;1.90;88.90
23499;DHT22;11926;48.120;11.562;2023-03-01T03:19:54;1.90;89.00
23499;DHT22;11926;48.120;11.562;2023-03-01T03:22:41;1.80;89.10
23499;DHT22;11926;48.120;11.562;2023-03-01T03:25:29;1.80;88.90
23499;DHT22;11926;48.120;11.562;2023-03-01T03:28:16;1.80;88.90
23499;DHT22;11926;48.120;11.562;2023-03-01T03:31:06;1.80;88.90
23499;DHT22;11926;48.120;11.562;2023-03-01T03:33:53;1.80;88.90
23499;DHT22;11926;48.120;11.562;2023-03-01T03:36:42;1.80;89.00
23499;DHT22;11926;48.120;11.562;2023-03-01T03:39:29;1.80;88.80
23499;DHT22;11926;48.120;11.562;2023-03-01T03:42:20;1.80;88.90
23499;DHT22;11926;48.120;11.562;2023-03-01T03:45:08;1.80;88.80
23499;DHT22;11926;48.120;11.562;2023-03-01T03:47:55;1.80;88.80
23499;DHT22;11926;48.120;11.562;2023-03-01T03:50:48;1.80;88.90
23499;DHT22;11926;48.120;11.562;2023-03-01T03:53:37;1.80;88.90
23499;DHT22;11926;48.120;11.562;2023-03-01T03:56:24;1.80;88.70
23499;DHT22;11926;48.120;11.562;2023-03-01T03:59:13;1.70;88.70
23499;DHT22;11926;48.120;11.562;2023-03-01T04:02:00;1.70;88.70
23499;DHT22;11926;48.120;11.562;2023-03-01T04:04:47;1.70;88.70
23499;DHT22;11926;48.120;11.562;2023-03-01T04:07:35;1.70;88.70
23499;DHT22;11926;48.120;11.562;2023-03-01T04:10:24;1.70;88.80
23499;DHT22;11926;48.120;11.562;2023-03-01T04:13:12;1.70;88.80
23499;DHT22;11926;48.120;11.562;2023-03-01T04:15:59;1.70;88.70
23499;DHT22;11926;48.120;11.562;2023-03-01T04:18:47;1.60;88.70
23499;DHT22;11926;48.120;11.562;2023-03-01T04:21:34;1.60;88.70
23499;DHT22;11926;48.120;11.562;2023-03-01T04:24:21;1.60;88.70
23499;DHT22;11926;48.120;11.562;2023-03-01T04:27:10;1.60;89.40
23499;DHT22;11926;48.120;11.562;2023-03-01T04:29:57;1.50;88.70
23499;DHT22;11926;48.120;11.562;2023-03-01T04:32:44;1.50;88.70
23499;DHT22;11926;48.120;11.562;2023-03-01T04:35:32;1.50;88.80
23499;DHT22;11926;48.120;11.562;2023-03-01T04:38:20;1.50;88.70
23499;DHT22;11926;48.120;11.562;2023-03-01T04:41:09;1.50;88.70
23499;DHT22;11926;48.120;11.562;2023-03-01T04:43:58;1.50;88.70
23499;DHT22;11926;48.120;11.562;2023-03-01T04:46:48;1.50;88.60
23499;DHT22;11926;48.120;11.562;2023-03-01T04:49:35;1.50;88.60
23499;DHT22;11926;48.120;11.562;2023-03-01T04:52:22;1.40;88.70
23499;DHT22;11926;48.120;11.562;2023-03-01T04:55:10;1.40;88.70
23499;DHT22;11926;48.120;11.562;2023-03-01T04:57:57;1.40;88.80
23499;DHT22;11926;48.120;11.562;2023-03-01T05:00:46;1.40;88.80
23499;DHT22;11926;48.120;11.562;2023-03-01T05:03:33;1.40;88.80
23499;DHT22;11926;48.120;11.562;2023-03-01T05:06:21;1.40;88.90
23499;DHT22;11926;48.120;11.562;2023-03-01T05:09:08;1.40;88.90
23499;DHT22;11926;48.120;11.562;2023-03-01T05:11:57;1.40;89.80
23499;DHT22;11926;48.120;11.562;2023-03-01T05:14:44;1.40;89.00
23499;DHT22;11926;48.120;11.562;2023-03-01T05:17:33;1.30;89.00
23499;DHT22;11926;48.120;11.562;2023-03-01T05:20:20;1.40;89.10
23499;DHT22;11926;48.120;11.562;2023-03-01T05:23:09;1.40;89.00
23499;DHT22;11926;48.120;11.562;2023-03-01T05:25:57;1.30;89.10
23499;DHT22;11926;48.120;11.562;2023-03-01T05:28:45;1.20;89.00
23499;DHT22;11926;48.120;11.562;2023-03-01T05:31:32;1.10;89.00
23499;DHT22;11926;48.120;11.562;2023-03-01T05:34:24;1.00;89.20
23499;DHT22;11926;48.120;11.562;2023-03-01T05:37:12;1.00;89.30
23499;DHT22;11926;48.120;11.562;2023-03-01T05:40:00;0.90;89.40
23499;DHT22;11926;48.120;11.562;2023-03-01T05:42:48;0.90;89.40
23499;DHT22;11926;48.120;11.562;2023-03-01T05:45:37;0.90;89.60
23499;DHT22;11926;48.120;11.562;2023-03-01T05:48:25;0.90;89.60
23499;DHT22;11926;48.120;11.562;2023-03-01T05:51:14;0.90;89.60
23499;DHT22;11926;48.120;11.562;2023-03-01T05:54:00;0.90;89.60
23499;DHT22;11926;48.120;11.562;2023-03-01T05:56:48;0.80;89.60
23499;DHT22;11926;48.120;11.562;2023-03-01T05:59:35;0.80;89.60
23499;DHT22;11926;48.120;11.562;2023-03-01T06:02:22;0.80;89.80
23499;DHT22;11926;48.120;11.562;2023-03-01T06:05:11;0.80;89.90
23499;DHT22;11926;48.120;11.562;2023-03-01T06:08:01;0.80;90.00
23499;DHT22;11926;48.120;11.562;2023-03-01T06:10:48;0.80;90.00
23499;DHT22;11926;48.120;11.562;2023-03-01T06:13:36;0.80;89.90
23499;DHT22;11926;48.120;11.562;2023-03-01T06:16:22;0.80;90.00
23499;DHT22;11926;48.120;11.562;2023-03-01T06:19:10;0.80;90.00
23499;DHT22;11926;48.120;11.562;2023-03-01T06:21:57;0.80;90.00
23499;DHT22;11926;48.120;11.562;2023-03-01T06:24:45;0.80;90.40
23499;DHT22;11926;48.120;11.562;2023-03-01T06:27:32;0.80;90.00
23499;DHT22;11926;48.120;11.562;2023-03-01T06:30:21;0.80;89.90
23499;DHT22;11926;48.120;11.562;2023-03-01T06:33:09;0.80;90.00
23499;DHT22;11926;48.120;11.562;2023-03-01T06:35:56;0.80;90.00
23499;DHT22;11926;48.120;11.562;2023-03-01T06:38:43;0.90;90.00
23499;DHT22;11926;48.120;11.562;2023-03-01T06:41:31;0.90;89.80
23499;DHT22;11926;48.120;11.562;2023-03-01T06:44:19;0.80;89.90
23499;DHT22;11926;48.120;11.562;2023-03-01T06:47:06;0.80;90.00
23499;DHT22;11926;48.120;11.562;2023-03-01T06:49:54;0.90;90.00
23499;DHT22;11926;48.120;11.562;2023-03-01T06:52:41;0.80;90.00
23499;DHT22;11926;48.120;11.562;2023-03-01T06:55:30;0.90;90.10
23499;DHT22;11926;48.120;11.562;2023-03-01T06:58:19;0.90;90.10
23499;DHT22;11926;48.120;11.562;2023-03-01T07:01:06;0.90;90.00
23499;DHT22;11926;48.120;11.562;2023-03-01T07:03:53;0.90;90.00
23499;DHT22;11926;48.120;11.562;2023-03-01T07:06:40;0.90;90.00
23499;DHT22;11926;48.120;11.562;2023-03-01T07:09:28;1.00;90.00
23499;DHT22;11926;48.120;11.562;2023-03-01T07:12:15;0.90;89.90
23499;DHT22;11926;48.120;11.562;2023-03-01T07:15:06;0.90;90.00
23499;DHT22;11926;48.120;11.562;2023-03-01T07:17:56;1.00;90.00
23499;DHT22;11926;48.120;11.562;2023-03-01T07:20:43;1.10;90.00
23499;DHT22;11926;48.120;11.562;2023-03-01T07:23:30;1.10;90.00
23499;DHT22;11926;48.120;11.562;2023-03-01T07:26:18;1.10;89.80
23499;DHT22;11926;48.120;11.562;2023-03-01T07:29:07;1.10;89.70
23499;DHT22;11926;48.120;11.562;2023-03-01T07:31:56;1.10;89.90
23499;DHT22;11926;48.120;11.562;2023-03-01T07:34:44;1.10;89.80
23499;DHT22;11926;48.120;11.562;2023-03-01T07:37:31;1.10;89.70
23499;DHT22;11926;48.120;11.562;2023-03-01T07:40:18;1.10;89.60
23499;DHT22;11926;48.120;11.562;2023-03-01T07:43:06;1.10;89.70
23499;DHT22;11926;48.120;11.562;2023-03-01T07:45:53;1.10;89.80
23499;DHT22;11926;48.120;11.562;2023-03-01T07:48:42;1.20;89.80
23499;DHT22;11926;48.120;11.562;2023-03-01T07:51:29;1.30;89.70
23499;DHT22;11926;48.120;11.562;2023-03-01T07:54:16;1.20;89.60
23499;DHT22;11926;48.120;11.562;2023-03-01T07:57:04;1.30;89.40
23499;DHT22;11926;48.120;11.562;2023-03-01T07:59:51;1.30;89.60
23499;DHT22;11926;48.120;11.562;2023-03-01T08:02:38;1.40;89.50
23499;DHT22;11926;48.120;11.562;2023-03-01T08:05:29;1.40;89.60
23499;DHT22;11926;48.120;11.562;2023-03-01T08:08:16;1.40;89.20
23499;DHT22;11926;48.120;11.562;2023-03-01T08:11:06;1.40;89.10
23499;DHT22;11926;48.120;11.562;2023-03-01T08:13:54;1.40;89.10
23499;DHT22;11926;48.120;11.562;2023-03-01T08:16:55;1.40;89.10
23499;DHT22;11926;48.120;11.562;2023-03-01T08:19:43;1.50;89.10
23499;DHT22;11926;48.120;11.562;2023-03-01T08:22:31;1.50;88.90
23499;DHT22;11926;48.120;11.562;2023-03-01T08:25:18;1.60;88.90
23499;DHT22;11926;48.120;11.562;2023-03-01T08:28:06;1.60;88.70
23499;DHT22;11926;48.120;11.562;2023-03-01T08:30:53;1.70;88.70
23499;DHT22;11926;48.120;11.562;2023-03-01T08:33:40;1.80;88.90
23499;DHT22;11926;48.120;11.562;2023-03-01T08:36:30;1.90;88.70
23499;DHT22;11926;48.120;11.562;2023-03-01T08:39:20;2.00;88.50
23499;DHT22;11926;48.120;11.562;2023-03-01T08:42:07;2.10;88.30
23499;DHT22;11926;48.120;11.562;2023-03-01T08:44:54;2.10;87.80
23499;DHT22;11926;48.120;11.562;2023-03-01T08:47:42;2.20;87.80
23499;DHT22;11926;48.120;11.562;2023-03-01T08:50:30;2.30;88.20
23499;DHT22;11926;48.120;11.562;2023-03-01T08:53:18;2.40;87.90
23499;DHT22;11926;48.120;11.562;2023-03-01T08:56:07;2.50;87.30
23499;DHT22;11926;48.120;11.562;2023-03-01T08:58:54;2.60;87.30
23499;DHT22;11926;48.120;11.562;2023-03-01T09:01:41;2.60;87.20
23499;DHT22;11926;48.120;11.562;2023-03-01T09:04:30;2.70;87.00
23499;DHT22;11926;48.120;11.562;2023-03-01T09:07:17;2.70;86.70
23499;DHT22;11926;48.120;11.562;2023-03-01T09:10:05;2.70;86.30
23499;DHT22;11926;48.120;11.562;2023-03-01T09:12:53;2.70;86.20
23499;DHT22;11926;48.120;11.562;2023-03-01T09:15:41;2.60;86.00
23499;DHT22;11926;48.120;11.562;2023-03-01T09:18:28;2.60;86.30
23499;DHT22;11926;48.120;11.562;2023-03-01T09:21:16;2.60;86.20
23499;DHT22;11926;48.120;11.562;2023-03-01T09:24:23;2.70;86.10
23499;DHT22;11926;48.120;11.562;2023-03-01T09:27:10;2.80;86.10
23499;DHT22;11926;48.120;11.562;2023-03-01T09:30:01;2.90;85.90
23499;DHT22;11926;48.120;11.562;2023-03-01T09:32:48;2.90;85.50
23499;DHT22;11926;48.120;11.562;2023-03-01T09:35:36;2.90;85.20
23499;DHT22;11926;48.120;11.562;2023-03-01T09:38:23;2.90;85.20
23499;DHT22;11926;48.120;11.562;2023-03-01T09:41:23;2.90;85.20
23499;DHT22;11926;48.120;11.562;2023-03-01T09:44:22;2.90;85.10
23499;DHT22;11926;48.120;11.562;2023-03-01T09:47:17;2.90;85.20
23499;DHT22;11926;48.120;11.562;2023-03-01T09:50:11;2.90;85.00
23499;DHT22;11926;48.120;11.562;2023-03-01T09:53:02;2.90;85.10
23499;DHT22;11926;48.120;11.562;2023-03-01T09:55:53;2.90;85.00
23499;DHT22;11926;48.120;11.562;2023-03-01T09:58:47;3.10;85.00
23499;DHT22;11926;48.120;11.562;2023-03-01T10:01:43;3.10;84.80
23499;DHT22;11926;48.120;11.562;2023-03-01T10:04:43;3.20;84.70
23499;DHT22;11926;48.120;11.562;2023-03-01T10:07:38;3.30;84.60
23499;DHT22;11926;48.120;11.562;2023-03-01T10:10:26;3.50;84.50
23499;DHT22;11926;48.120;11.562;2023-03-01T10:13:23;3.40;84.00
23499;DHT22;11926;48.120;11.562;2023-03-01T10:16:14;3.40;84.50
23499;DHT22;11926;48.120;11.562;2023-03-01T10:19:04;3.40;83.70
23499;DHT22;11926;48.120;11.562;2023-03-01T10:21:53;3.30;83.60
23499;DHT22;11926;48.120;11.562;2023-03-01T10:24:41;3.30;84.20
23499;DHT22;11926;48.120;11.562;2023-03-01T10:27:34;3.20;83.40
23499;DHT22;11926;48.120;11.562;2023-03-01T10:30:34;3.20;83.60
23499;DHT22;11926;48.120;11.562;2023-03-01T10:33:30;3.20;83.90
23499;DHT22;11926;48.120;11.562;2023-03-01T10:36:18;3.40;84.30
23499;DHT22;11926;48.120;11.562;2023-03-01T10:39:16;3.50;84.10
23499;DHT22;11926;48.120;11.562;2023-03-01T10:42:07;3.80;84.00
23499;DHT22;11926;48.120;11.562;2023-03-01T10:45:27;3.90;83.40
23499;DHT22;11926;48.120;11.562;2023-03-01T10:51:07;4.40;82.70
23499;DHT22;11926;48.120;11.562;2023-03-01T10:53:54;4.70;82.70
23499;DHT22;11926;48.120;11.562;2023-03-01T10:56:52;5.20;82.60
23499;DHT22;11926;48.120;11.562;2023-03-01T10:59:41;5.50;80.80
23499;DHT22;11926;48.120;11.562;2023-03-01T11:02:29;5.60;79.30
23499;DHT22;11926;48.120;11.562;2023-03-01T11:05:21;5.70;79.50
23499;DHT22;11926;48.120;11.562;2023-03-01T11:08:09;6.20;79.30
23499;DHT22;11926;48.120;11.562;2023-03-01T11:11:14;6.60;78.70
23499;DHT22;11926;48.120;11.562;2023-03-01T11:14:06;6.70;76.50
23499;DHT22;11926;48.120;11.562;2023-03-01T11:20:13;7.00;77.00
23499;DHT22;11926;48.120;11.562;2023-03-01T11:23:09;8.20;77.60
23499;DHT22;11926;48.120;11.562;2023-03-01T11:25:59;8.80;74.00
23499;DHT22;11926;48.120;11.562;2023-03-01T11:28:50;8.70;72.70
23499;DHT22;11926;48.120;11.562;2023-03-01T11:31:41;8.30;72.40
23499;DHT22;11926;48.120;11.562;2023-03-01T11:34:43;7.90;71.20
23499;DHT22;11926;48.120;11.562;2023-03-01T11:37:37;7.30;71.30
23499;DHT22;11926;48.120;11.562;2023-03-01T11:40:32;6.90;71.60
23499;DHT22;11926;48.120;11.562;2023-03-01T11:43:26;6.80;71.90
23499;DHT22;11926;48.120;11.562;2023-03-01T11:46:33;6.70;72.10
23499;DHT22;11926;48.120;11.562;2023-03-01T11:49:38;6.50;72.20
23499;DHT22;11926;48.120;11.562;2023-03-01T11:52:38;6.50;72.50
23499;DHT22;11926;48.120;11.562;2023-03-01T11:55:42;6.50;72.50
23499;DHT22;11926;48.120;11.562;2023-03-01T11:58:51;6.40;72.40
23499;DHT22;11926;48.120;11.562;2023-03-01T12:01:55;6.40;72.50
23499;DHT22;11926;48.120;11.562;2023-03-01T12:08:06;6.50;73.00
23499;DHT22;11926;48.120;11.562;2023-03-01T12:11:03;6.60;73.00
23499;DHT22;11926;48.120;11.562;2023-03-01T12:14:11;6.70;72.90
23499;DHT22;11926;48.120;11.562;2023-03-01T12:17:12;6.80;72.60
23499;DHT22;11926;48.120;11.562;2023-03-01T12:20:14;7.00;73.30
23499;DHT22;11926;48.120;11.562;2023-03-01T12:26:24;7.40;71.70
23499;DHT22;11926;48.120;11.562;2023-03-01T12:29:25;7.30;71.20
23499;DHT22;11926;48.120;11.562;2023-03-01T12:32:24;7.20;70.90
23499;DHT22;11926;48.120;11.562;2023-03-01T12:35:46;7.10;71.20
23499;DHT22;11926;48.120;11.562;2023-03-01T12:38:42;7.00;71.40
23499;DHT22;11926;48.120;11.562;2023-03-01T12:41:43;7.00;71.70
23499;DHT22;11926;48.120;11.562;2023-03-01T12:44:42;7.10;71.50
23499;DHT22;11926;48.120;11.562;2023-03-01T12:47:50;7.20;71.90
23499;DHT22;11926;48.120;11.562;2023-03-01T12:50:43;7.30;71.50
23499;DHT22;11926;48.120;11.562;2023-03-01T12:53:36;7.20;71.20
23499;DHT22;11926;48.120;11.562;2023-03-01T12:56:29;7.30;72.70
23499;DHT22;11926;48.120;11.562;2023-03-01T12:59:21;7.50;72.30
23499;DHT22;11926;48.120;11.562;2023-03-01T13:02:18;7.60;71.20
23499;DHT22;11926;48.120;11.562;2023-03-01T13:05:26;7.60;71.20
23499;DHT22;11926;48.120;11.562;2023-03-01T13:08:25;7.60;71.10
23499;DHT22;11926;48.120;11.562;2023-03-01T13:11:18;7.60;71.20
23499;DHT22;11926;48.120;11.562;2023-03-01T13:17:31;7.70;70.80
23499;DHT22;11926;48.120;11.562;2023-03-01T13:20:20;7.80;71.20
23499;DHT22;11926;48.120;11.562;2023-03-01T13:23:12;7.90;70.20
23499;DHT22;11926;48.120;11.562;2023-03-01T13:26:07;7.90;70.00
23499;DHT22;11926;48.120;11.562;2023-03-01T13:28:57;7.80;70.00
23499;DHT22;11926;48.120;11.562;2023-03-01T13:32:01;7.90;70.70
23499;DHT22;11926;48.120;11.562;2023-03-01T13:34:53;8.00;70.30
23499;DHT22;11926;48.120;11.562;2023-03-01T13:37:41;8.10;69.80
23499;DHT22;11926;48.120;11.562;2023-03-01T13:43:48;8.20;70.10
23499;DHT22;11926;48.120;11.562;2023-03-01T13:46:35;8.10;69.60
23499;DHT22;11926;48.120;11.562;2023-03-01T13:49:27;8.10;69.80
23499;DHT22;11926;48.120;11.562;2023-03-01T13:52:37;8.10;69.60
23499;DHT22;11926;48.120;11.562;2023-03-01T13:55:34;8.10;69.40
23499;DHT22;11926;48.120;11.562;2023-03-01T13:58:24;8.10;70.10
23499;DHT22;11926;48.120;11.562;2023-03-01T14:01:22;8.20;70.10
23499;DHT22;11926;48.120;11.562;2023-03-01T14:04:25;8.30;69.40
23499;DHT22;11926;48.120;11.562;2023-03-01T14:07:18;8.30;69.60
23499;DHT22;11926;48.120;11.562;2023-03-01T14:10:06;8.30;69.40
23499;DHT22;11926;48.120;11.562;2023-03-01T14:13:00;8.30;69.30
23499;DHT22;11926;48.120;11.562;2023-03-01T14:16:14;8.30;69.00
23499;DHT22;11926;48.120;11.562;2023-03-01T14:19:15;8.40;69.90
23499;DHT22;11926;48.120;11.562;2023-03-01T14:22:21;8.50;69.00
23499;DHT22;11926;48.120;11.562;2023-03-01T14:25:21;8.40;68.70
23499;DHT22;11926;48.120;11.562;2023-03-01T14:28:15;8.50;69.10
23499;DHT22;11926;48.120;11.562;2023-03-01T14:31:23;8.70;68.70
23499;DHT22;11926;48.120;11.562;2023-03-01T14:34:19;9.00;68.10
23499;DHT22;11926;48.120;11.562;2023-03-01T14:37:11;9.40;68.00
23499;DHT22;11926;48.120;11.562;2023-03-01T14:40:22;9.80;67.50
23499;DHT22;11926;48.120;11.562;2023-03-01T14:43:11;10.20;66.00
23499;DHT22;11926;48.120;11.562;2023-03-01T14:45:59;10.50;65.30
23499;DHT22;11926;48.120;11.562;2023-03-01T14:48:49;10.70;64.80
23499;DHT22;11926;48.120;11.562;2023-03-01T14:51:41;10.80;63.60
23499;DHT22;11926;48.120;11.562;2023-03-01T14:54:37;10.70;63.20
23499;DHT22;11926;48.120;11.562;2023-03-01T14:57:27;10.70;63.60
23499;DHT22;11926;48.120;11.562;2023-03-01T15:00:18;10.60;63.50
23499;DHT22;11926;48.120;11.562;2023-03-01T15:03:11;10.40;63.60
23499;DHT22;11926;48.120;11.562;2023-03-01T15:06:01;10.20;63.90
23499;DHT22;11926;48.120;11.562;2023-03-01T15:08:52;10.20;64.20
23499;DHT22;11926;48.120;11.562;2023-03-01T15:11:42;10.30;63.80
23499;DHT22;11926;48.120;11.562;2023-03-01T15:14:45;10.30;63.00
23499;DHT22;11926;48.120;11.562;2023-03-01T15:17:53;10.30;63.50
23499;DHT22;11926;48.120;11.562;2023-03-01T15:20:42;10.30;63.80
23499;DHT22;11926;48.120;11.562;2023-03-01T15:23:30;10.30;64.30
23499;DHT22;11926;48.120;11.562;2023-03-01T15:26:25;10.40;64.20
23499;DHT22;11926;48.120;11.562;2023-03-01T15:29:18;10.60;64.10
23499;DHT22;11926;48.120;11.562;2023-03-01T15:32:22;10.50;63.70
23499;DHT22;11926;48.120;11.562;2023-03-01T15:35:34;10.30;63.60
23499;DHT22;11926;48.120;11.562;2023-03-01T15:41:27;9.60;64.90
23499;DHT22;11926;48.120;11.562;2023-03-01T15:44:17;9.40;65.40
23499;DHT22;11926;48.120;11.562;2023-03-01T15:47:23;9.20;66.20
23499;DHT22;11926;48.120;11.562;2023-03-01T15:50:17;9.00;66.50
23499;DHT22;11926;48.120;11.562;2023-03-01T15:53:08;8.90;66.90
23499;DHT22;11926;48.120;11.562;2023-03-01T15:55:57;8.70;67.20
23499;DHT22;11926;48.120;11.562;2023-03-01T15:58:46;8.60;67.60
23499;DHT22;11926;48.120;11.562;2023-03-01T16:01:33;8.50;68.10
23499;DHT22;11926;48.120;11.562;2023-03-01T16:04:20;8.30;68.50
23499;DHT22;11926;48.120;11.562;2023-03-01T16:07:09;8.20;69.00
23499;DHT22;11926;48.120;11.562;2023-03-01T16:09:56;8.10;69.50
23499;DHT22;11926;48.120;11.562;2023-03-01T16:12:44;8.00;70.00
23499;DHT22;11926;48.120;11.562;2023-03-01T16:15:34;7.90;70.70
23499;DHT22;11926;48.120;11.562;2023-03-01T16:18:21;7.90;70.80
23499;DHT22;11926;48.120;11.562;2023-03-01T16:21:13;7.90;71.00
23499;DHT22;11926;48.120;11.562;2023-03-01T16:24:01;7.90;71.30
23499;DHT22;11926;48.120;11.562;2023-03-01T16:26:49;7.90;71.40
23499;DHT22;11926;48.120;11.562;2023-03-01T16:29:36;7.80;72.50
23499;DHT22;11926;48.120;11.562;2023-03-01T16:32:25;7.70;71.90
23499;DHT22;11926;48.120;11.562;2023-03-01T16:35:15;7.70;72.20
23499;DHT22;11926;48.120;11.562;2023-03-01T16:38:03;7.60;72.30
23499;DHT22;11926;48.120;11.562;2023-03-01T16:40:51;7.50;72.60
23499;DHT22;11926;48.120;11.562;2023-03-01T16:43:38;7.50;73.10
23499;DHT22;11926;48.120;11.562;2023-03-01T16:46:27;7.40;73.20
23499;DHT22;11926;48.120;11.562;2023-03-01T16:49:17;7.40;73.50
23499;DHT22;11926;48.120;11.562;2023-03-01T16:52:04;7.30;73.70
23499;DHT22;11926;48.120;11.562;2023-03-01T16:54:51;7.30;74.00
23499;DHT22;11926;48.120;11.562;2023-03-01T16:57:39;7.20;74.10
23499;DHT22;11926;48.120;11.562;2023-03-01T17:00:27;7.10;74.50
23499;DHT22;11926;48.120;11.562;2023-03-01T17:03:14;7.10;74.60
23499;DHT22;11926;48.120;11.562;2023-03-01T17:06:06;7.00;75.00
23499;DHT22;11926;48.120;11.562;2023-03-01T17:08:54;7.00;75.20
23499;DHT22;11926;48.120;11.562;2023-03-01T17:11:41;6.90;75.60
23499;DHT22;11926;48.120;11.562;2023-03-01T17:14:29;6.80;75.70
23499;DHT22;11926;48.120;11.562;2023-03-01T17:17:16;6.80;76.00
23499;DHT22;11926;48.120;11.562;2023-03-01T17:20:04;6.70;76.30
23499;DHT22;11926;48.120;11.562;2023-03-01T17:22:52;6.70;76.60
23499;DHT22;11926;48.120;11.562;2023-03-01T17:25:41;6.60;76.60
23499;DHT22;11926;48.120;11.562;2023-03-01T17:28:32;6.60;77.00
23499;DHT22;11926;48.120;11.562;2023-03-01T17:31:20;6.50;77.00
23499;DHT22;11926;48.120;11.562;2023-03-01T17:34:08;6.40;77.20
23499;DHT22;11926;48.120;11.562;2023-03-01T17:36:55;6.30;77.20
23499;DHT22;11926;48.120;11.562;2023-03-01T17:39:44;6.10;77.60
23499;DHT22;11926;48.120;11.562;2023-03-01T17:42:31;6.10;77.80
23499;DHT22;11926;48.120;11.562;2023-03-01T17:45:18;6.00;78.10
23499;DHT22;11926;48.120;11.562;2023-03-01T17:48:08;5.90;78.30
23499;DHT22;11926;48.120;11.562;2023-03-01T17:51:08;5.80;78.50
23499;DHT22;11926;48.120;11.562;2023-03-01T17:54:01;5.70;79.00
23499;DHT22;11926;48.120;11.562;2023-03-01T17:56:55;5.60;79.00
23499;DHT22;11926;48.120;11.562;2023-03-01T17:59:51;5.50;79.30
23499;DHT22;11926;48.120;11.562;2023-03-01T18:02:41;5.40;79.40
23499;DHT22;11926;48.120;11.562;2023-03-01T18:05:38;5.30;79.60
23499;DHT22;11926;48.120;11.562;2023-03-01T18:08:28;5.20;79.80
23499;DHT22;11926;48.120;11.562;2023-03-01T18:11:17;5.10;79.90
23499;DHT22;11926;48.120;11.562;2023-03-01T18:14:06;5.10;80.20
23499;DHT22;11926;48.120;11.562;2023-03-01T18:16:53;5.00;80.30
23499;DHT22;11926;48.120;11.562;2023-03-01T18:19:40;4.90;80.50
23499;DHT22;11926;48.120;11.562;2023-03-01T18:22:28;4.80;80.60
23499;DHT22;11926;48.120;11.562;2023-03-01T18:25:16;4.70;81.00
23499;DHT22;11926;48.120;11.562;2023-03-01T18:28:03;4.60;81.00
23499;DHT22;11926;48.120;11.562;2023-03-01T18:30:56;4.60;81.20